Time;durP1;ratioP1;P1;durP2;ratioP2;P2;SDS_P1;SDS_P2;PMS_P1;PMS_P2;Temp;Humidity;BMP_temperature;BMP_pressure;BME280_temperature;BME280_humidity;BME280_pressure;Samples;Min_cycle;Max_cycle;Signal;HPM_P1;HPM_P2
2021/06/16 00:00:21;;;;;;;1.33;1.10;;;;;25.10;100687.00;;;;2074083;28;20259;-59
2021/06/16 00:01:21;;;;;;;1.40;1.07;;;;;25.10;100688.00;;;;2074466;28;20221;-59
2021/06/16 00:02:22;;;;;;;1.40;1.00;;;;;25.10;100692.00;;;;2071305;28;20230;-59
2021/06/16 00:03:22;;;;;;;1.50;1.00;;;;;25.10;100695.00;;;;2071329;28;20664;-59
2021/06/16 00:04:22;;;;;;;1.20;1.10;;;;;25.10;100693.00;;;;2071193;28;20214;-59
2021/06/16 00:05:25;;;;;;;1.47;1.23;;;;;25.10;100696.00;;;;2071460;28;20222;-59
2021/06/16 00:06:26;;;;;;;3.20;1.13;;;;;25.10;100689.00;;;;2071127;28;20694;-59
2021/06/16 00:07:26;;;;;;;1.23;1.13;;;;;25.10;100696.00;;;;2071063;28;20229;-58
2021/06/16 00:08:26;;;;;;;1.10;1.00;;;;;25.10;100690.00;;;;2071343;28;20301;-58
2021/06/16 00:09:27;;;;;;;1.50;1.30;;;;;25.10;100694.00;;;;2071184;28;20273;-59
2021/06/16 00:10:29;;;;;;;1.40;0.90;;;;;25.10;100688.00;;;;2070877;28;20226;-59
2021/06/16 00:11:30;;;;;;;1.10;0.90;;;;;25.10;100692.00;;;;2070357;28;20218;-58
2021/06/16 00:12:30;;;;;;;1.57;0.80;;;;;25.10;100684.00;;;;2071150;28;20603;-59
2021/06/16 00:13:30;;;;;;;1.07;0.97;;;;;25.10;100680.00;;;;2071188;28;20301;-59
2021/06/16 00:14:31;;;;;;;1.03;0.87;;;;;25.10;100690.00;;;;2071195;28;20229;-58
2021/06/16 00:15:35;;;;;;;1.67;0.80;;;;;24.90;100683.00;;;;2071103;28;20222;-58
2021/06/16 00:16:36;;;;;;;1.35;0.95;;;;;25.10;100686.00;;;;2071245;28;20659;-59
2021/06/16 00:17:36;;;;;;;1.77;1.10;;;;;25.10;100683.00;;;;2071073;28;20214;-59
2021/06/16 00:18:37;;;;;;;1.20;1.10;;;;;25.10;100684.00;;;;2071227;28;20657;-58
2021/06/16 00:19:37;;;;;;;1.43;1.30;;;;;25.10;100684.00;;;;2071053;28;20233;-59
2021/06/16 00:20:37;;;;;;;1.10;1.00;;;;;25.10;100680.00;;;;2071251;28;20237;-59
2021/06/16 00:21:38;;;;;;;1.10;0.90;;;;;25.10;100685.00;;;;2069109;28;20233;-58
2021/06/16 00:22:39;;;;;;;1.23;1.00;;;;;25.10;100681.00;;;;2070546;28;20215;-59
2021/06/16 00:23:39;;;;;;;1.20;1.10;;;;;25.10;100679.00;;;;2071286;28;20737;-58
2021/06/16 00:24:40;;;;;;;1.30;1.00;;;;;25.10;100683.00;;;;2070829;28;20278;-59
2021/06/16 00:25:40;;;;;;;1.87;1.30;;;;;25.10;100676.00;;;;2070537;28;20396;-58
2021/06/16 00:26:42;;;;;;;1.97;1.17;;;;;25.10;100680.00;;;;2070091;28;20702;-59
2021/06/16 00:27:42;;;;;;;1.40;1.17;;;;;25.10;100678.00;;;;2071241;28;20755;-59
2021/06/16 00:28:43;;;;;;;1.50;1.10;;;;;25.10;100681.00;;;;2073145;28;20257;-59
2021/06/16 00:29:43;;;;;;;1.50;1.10;;;;;25.10;100679.00;;;;2075243;28;21682;-58
2021/06/16 00:30:43;;;;;;;1.80;1.10;;;;;25.10;100676.00;;;;2071893;28;20448;-61
2021/06/16 00:31:44;;;;;;;1.20;1.00;;;;;25.10;100674.00;;;;2071397;28;20222;-60
2021/06/16 00:32:44;;;;;;;1.60;1.10;;;;;25.10;100680.00;;;;2070840;28;20712;-61
2021/06/16 00:33:45;;;;;;;1.17;1.07;;;;;25.10;100676.00;;;;2070475;28;20683;-60
2021/06/16 00:34:45;;;;;;;1.23;1.13;;;;;25.10;100680.00;;;;2070555;28;20316;-59
2021/06/16 00:35:45;;;;;;;1.50;1.07;;;;;25.10;100681.00;;;;2069259;28;20609;-59
2021/06/16 00:36:46;;;;;;;1.40;0.90;;;;;25.10;100672.00;;;;2070446;28;20211;-59
2021/06/16 00:37:47;;;;;;;1.93;1.13;;;;;25.10;100673.00;;;;2070316;28;20222;-58
2021/06/16 00:38:47;;;;;;;0.95;0.88;;;;;25.10;100677.00;;;;2070136;28;20217;-58
2021/06/16 00:39:48;;;;;;;2.07;1.10;;;;;25.10;100673.00;;;;2070526;28;20218;-59
2021/06/16 00:40:48;;;;;;;1.53;1.20;;;;;25.10;100673.00;;;;2076437;28;20220;-58
2021/06/16 00:41:48;;;;;;;1.33;0.97;;;;;25.00;100669.00;;;;2077718;28;20217;-58
2021/06/16 00:42:49;;;;;;;1.10;1.00;;;;;25.00;100673.00;;;;2078645;28;20221;-58
2021/06/16 00:43:49;;;;;;;1.40;1.20;;;;;25.00;100667.00;;;;2078583;28;20709;-58
2021/06/16 00:44:50;;;;;;;1.70;1.13;;;;;25.00;100666.00;;;;2078474;28;20213;-59
2021/06/16 00:45:51;;;;;;;1.77;1.10;;;;;25.00;100661.00;;;;2078567;28;20264;-58
2021/06/16 00:46:51;;;;;;;2.30;1.23;;;;;25.00;100660.00;;;;2078403;28;20452;-58
2021/06/16 00:47:55;;;;;;;1.17;0.90;;;;;25.00;100665.00;;;;2078583;28;20210;-58
2021/06/16 00:48:55;;;;;;;1.42;1.15;;;;;25.00;100664.00;;;;2078544;28;20244;-59
2021/06/16 00:49:55;;;;;;;1.00;0.90;;;;;25.10;100666.00;;;;2077909;28;20216;-58
2021/06/16 00:50:56;;;;;;;1.63;1.27;;;;;25.00;100663.00;;;;2078029;28;20214;-59
2021/06/16 00:51:56;;;;;;;1.70;1.30;;;;;25.00;100662.00;;;;2077870;28;20241;-59
2021/06/16 00:52:57;;;;;;;1.20;1.10;;;;;25.00;100665.00;;;;2078785;28;20221;-58
2021/06/16 00:53:57;;;;;;;1.80;1.00;;;;;25.00;100660.00;;;;2078607;28;20216;-59
2021/06/16 00:54:57;;;;;;;0.93;0.90;;;;;25.00;100662.00;;;;2078566;28;20824;-58
2021/06/16 00:55:58;;;;;;;1.33;1.10;;;;;25.00;100656.00;;;;2066440;28;20204;-58
2021/06/16 00:56:58;;;;;;;0.97;0.87;;;;;25.00;100665.00;;;;2070449;28;20207;-58
2021/06/16 00:57:58;;;;;;;1.30;1.20;;;;;25.00;100666.00;;;;2086407;28;20205;-58
2021/06/16 00:58:59;;;;;;;1.37;1.10;;;;;25.10;100663.00;;;;2084006;28;20725;-58
2021/06/16 01:00:13;;;;;;;1.30;1.10;;;;;25.00;100660.00;;;;2063462;28;20205;-59
2021/06/16 01:01:24;;;;;;;1.05;0.95;;;;;25.00;100663.00;;;;2070142;28;20221;-58
2021/06/16 01:02:24;;;;;;;1.23;1.00;;;;;25.00;100662.00;;;;2070846;28;20257;-58
2021/06/16 01:03:38;;;;;;;1.50;1.30;;;;;25.00;100659.00;;;;2070981;28;20714;-58
2021/06/16 01:04:38;;;;;;;1.40;1.20;;;;;25.00;100647.00;;;;2070251;28;20221;-58
2021/06/16 01:06:01;;;;;;;1.60;1.10;;;;;25.00;100664.00;;;;2070337;28;20268;-58
2021/06/16 01:07:06;;;;;;;1.20;0.80;;;;;25.00;100662.00;;;;2070457;28;20394;-59
2021/06/16 01:08:06;;;;;;;1.20;1.10;;;;;25.00;100653.00;;;;2069911;28;20297;-58
2021/06/16 01:09:12;;;;;;;1.00;0.80;;;;;25.00;100656.00;;;;2061910;28;20214;-58
2021/06/16 01:10:19;;;;;;;2.17;1.17;;;;;25.00;100664.00;;;;2069679;28;20276;-59
2021/06/16 01:11:19;;;;;;;1.20;1.00;;;;;25.00;100661.00;;;;2062243;28;20241;-58
2021/06/16 01:12:29;;;;;;;2.43;1.10;;;;;25.00;100651.00;;;;2070310;28;20273;-58
2021/06/16 01:13:45;;;;;;;1.65;1.25;;;;;25.00;100659.00;;;;2070818;28;20222;-58
2021/06/16 01:14:54;;;;;;;1.27;1.05;;;;;25.00;100649.00;;;;2070891;28;20687;-58
2021/06/16 01:16:02;;;;;;;1.35;1.02;;;;;25.00;100661.00;;;;2069897;28;20218;-58
2021/06/16 01:17:03;;;;;;;1.85;1.10;;;;;25.00;100659.00;;;;2070073;28;20218;-58
2021/06/16 01:18:05;;;;;;;1.15;1.00;;;;;25.00;100645.00;;;;2070237;28;20205;-59
2021/06/16 01:19:17;;;;;;;2.10;1.10;;;;;25.00;100655.00;;;;2069994;28;20206;-58
2021/06/16 01:20:30;;;;;;;1.02;0.90;;;;;25.00;100655.00;;;;2069005;28;20225;-58
2021/06/16 01:21:30;;;;;;;1.13;1.00;;;;;25.00;100659.00;;;;2075280;28;20240;-59
2021/06/16 01:22:32;;;;;;;1.20;0.90;;;;;25.00;100650.00;;;;2070786;28;20761;-58
2021/06/16 01:23:38;;;;;;;1.38;1.05;;;;;25.00;100641.00;;;;2070403;28;20276;-59
2021/06/16 01:24:39;;;;;;;1.42;1.10;;;;;25.00;100651.00;;;;2070895;28;20333;-59
2021/06/16 01:25:58;;;;;;;1.17;1.07;;;;;25.00;100646.00;;;;2070050;28;20325;-58
2021/06/16 01:26:58;;;;;;;1.58;1.08;;;;;25.00;100639.00;;;;2069671;28;20301;-58
2021/06/16 01:27:59;;;;;;;0.83;0.80;;;;;25.00;100643.00;;;;2069871;28;20262;-59
2021/06/16 01:29:12;;;;;;;1.40;1.30;;;;;25.00;100645.00;;;;2073712;28;20317;-58
2021/06/16 01:30:12;;;;;;;1.10;1.00;;;;;25.00;100637.00;;;;2069831;28;20337;-59
2021/06/16 01:31:15;;;;;;;2.30;1.00;;;;;25.00;100639.00;;;;2065453;28;20226;-59
2021/06/16 01:32:15;;;;;;;1.50;1.00;;;;;25.00;100650.00;;;;2062671;28;20272;-58
2021/06/16 01:33:16;;;;;;;1.30;1.03;;;;;25.00;100642.00;;;;2070268;28;20460;-59
2021/06/16 01:34:19;;;;;;;1.47;1.30;;;;;25.00;100639.00;;;;2070921;28;20683;-58
2021/06/16 01:35:19;;;;;;;2.45;1.00;;;;;25.00;100640.00;;;;2070209;28;21051;-58
2021/06/16 01:36:21;;;;;;;2.83;1.63;;;;;25.00;100636.00;;;;2070207;28;20237;-58
2021/06/16 01:37:22;;;;;;;1.08;0.90;;;;;25.00;100642.00;;;;2070272;28;20214;-58
2021/06/16 01:38:22;;;;;;;1.30;1.10;;;;;25.00;100640.00;;;;2074411;28;20578;-58
2021/06/16 01:39:25;;;;;;;1.50;1.30;;;;;25.00;100636.00;;;;2086374;28;20229;-59
2021/06/16 01:40:25;;;;;;;1.75;1.00;;;;;25.00;100629.00;;;;2061569;28;20242;-58
2021/06/16 01:41:26;;;;;;;1.53;1.13;;;;;25.00;100627.00;;;;2061477;28;20218;-59
2021/06/16 01:42:27;;;;;;;1.00;0.90;;;;;25.00;100639.00;;;;2078352;28;20344;-58
2021/06/16 01:43:27;;;;;;;1.27;1.13;;;;;25.00;100630.00;;;;2061937;28;20211;-59
2021/06/16 01:44:28;;;;;;;1.17;0.97;;;;;25.00;100629.00;;;;2054213;28;20451;-58
2021/06/16 01:45:29;;;;;;;3.40;1.40;;;;;25.00;100630.00;;;;2070080;28;20353;-58
2021/06/16 01:46:30;;;;;;;1.63;0.98;;;;;25.00;100627.00;;;;2070169;28;20225;-58
2021/06/16 01:47:30;;;;;;;1.50;1.00;;;;;25.00;100626.00;;;;2069915;28;20222;-59
2021/06/16 01:48:30;;;;;;;1.30;1.20;;;;;25.00;100624.00;;;;2069099;28;20269;-58
2021/06/16 01:49:31;;;;;;;1.87;1.63;;;;;25.00;100615.00;;;;2061454;28;20218;-58
2021/06/16 01:50:31;;;;;;;1.20;1.03;;;;;25.00;100622.00;;;;2069395;28;20215;-59
2021/06/16 01:51:31;;;;;;;1.23;1.00;;;;;25.00;100619.00;;;;2076671;28;20590;-59
2021/06/16 01:52:32;;;;;;;1.20;1.10;;;;;25.00;100616.00;;;;2069560;28;20211;-57
2021/06/16 01:53:32;;;;;;;1.20;1.10;;;;;25.00;100614.00;;;;2070359;28;20280;-58
2021/06/16 01:54:33;;;;;;;1.23;1.10;;;;;25.00;100617.00;;;;2069699;28;20722;-58
2021/06/16 01:55:33;;;;;;;1.57;1.00;;;;;25.00;100617.00;;;;2069247;28;20227;-59
2021/06/16 01:56:34;;;;;;;1.17;1.07;;;;;25.00;100620.00;;;;2069530;28;20230;-58
2021/06/16 01:57:35;;;;;;;1.58;1.10;;;;;25.00;100620.00;;;;2078024;28;20210;-58
2021/06/16 01:58:35;;;;;;;1.10;1.00;;;;;25.00;100623.00;;;;2088019;28;20217;-58
2021/06/16 01:59:38;;;;;;;1.30;1.00;;;;;25.00;100618.00;;;;2074861;28;20305;-59
2021/06/16 02:00:39;;;;;;;1.30;1.20;;;;;25.00;100617.00;;;;2071123;28;20206;-59
2021/06/16 02:01:39;;;;;;;1.20;1.10;;;;;25.00;100619.00;;;;2070588;28;20272;-58
2021/06/16 02:02:39;;;;;;;2.03;1.17;;;;;25.00;100623.00;;;;2070658;28;20531;-58
2021/06/16 02:03:40;;;;;;;1.53;1.20;;;;;25.00;100623.00;;;;2070468;28;20218;-58
2021/06/16 02:04:40;;;;;;;1.23;1.13;;;;;25.00;100622.00;;;;2071114;28;20206;-58
2021/06/16 02:05:41;;;;;;;1.00;0.87;;;;;25.00;100621.00;;;;2071671;28;20218;-57
2021/06/16 02:06:42;;;;;;;1.50;1.23;;;;;25.00;100617.00;;;;2071708;28;20281;-58
2021/06/16 02:07:44;;;;;;;1.45;1.10;;;;;25.00;100614.00;;;;2071778;28;20580;-58
2021/06/16 02:08:46;;;;;;;2.13;1.27;;;;;25.00;100620.00;;;;2071793;28;20641;-58
2021/06/16 02:09:46;;;;;;;1.70;1.35;;;;;25.00;100621.00;;;;2071410;28;20253;-58
2021/06/16 02:10:48;;;;;;;1.87;1.00;;;;;25.00;100617.00;;;;2071446;28;20206;-58
2021/06/16 02:11:48;;;;;;;2.33;1.30;;;;;25.00;100617.00;;;;2086117;28;20217;-58
2021/06/16 02:12:48;;;;;;;1.30;1.10;;;;;25.00;100620.00;;;;2080388;28;20225;-58
2021/06/16 02:13:54;;;;;;;1.43;1.20;;;;;25.00;100625.00;;;;2079626;28;20268;-58
2021/06/16 02:15:03;;;;;;;1.58;1.48;;;;;25.00;100616.00;;;;2079114;28;20296;-59
2021/06/16 02:16:12;;;;;;;1.40;1.13;;;;;25.00;100616.00;;;;2079118;28;20210;-59
2021/06/16 02:17:12;;;;;;;1.20;1.10;;;;;25.00;100622.00;;;;2071325;28;20234;-58
2021/06/16 02:18:13;;;;;;;1.70;1.40;;;;;25.00;100614.00;;;;2071350;28;20213;-59
2021/06/16 02:19:20;;;;;;;1.73;1.30;;;;;25.00;100620.00;;;;2071273;28;20223;-59
2021/06/16 02:20:21;;;;;;;1.30;1.00;;;;;25.00;100620.00;;;;2072404;28;20218;-58
2021/06/16 02:21:21;;;;;;;1.20;1.00;;;;;25.00;100618.00;;;;2077334;28;20205;-58
2021/06/16 02:22:27;;;;;;;1.20;1.10;;;;;25.00;100620.00;;;;2078658;28;20650;-58
2021/06/16 02:23:28;;;;;;;2.25;1.35;;;;;25.00;100609.00;;;;2079068;28;20220;-59
2021/06/16 02:24:28;;;;;;;1.63;1.20;;;;;25.00;100612.00;;;;2079617;28;20570;-58
2021/06/16 02:25:29;;;;;;;1.20;1.10;;;;;25.00;100613.00;;;;2077080;28;20701;-59
2021/06/16 02:26:29;;;;;;;1.63;1.40;;;;;24.90;100613.00;;;;2079299;28;20849;-59
2021/06/16 02:27:29;;;;;;;1.83;1.40;;;;;25.00;100617.00;;;;2077340;28;20217;-58
2021/06/16 02:28:31;;;;;;;1.50;1.10;;;;;25.00;100618.00;;;;2071953;28;20296;-58
2021/06/16 02:29:32;;;;;;;2.50;1.48;;;;;25.00;100615.00;;;;2075362;28;20236;-62
2021/06/16 02:30:32;;;;;;;1.17;1.05;;;;;25.00;100615.00;;;;2072142;28;20676;-59
2021/06/16 02:31:33;;;;;;;1.70;1.30;;;;;25.00;100614.00;;;;2075003;28;20225;-58
2021/06/16 02:32:33;;;;;;;2.20;1.30;;;;;25.00;100614.00;;;;2072036;28;20222;-58
2021/06/16 02:33:33;;;;;;;1.63;1.10;;;;;25.00;100608.00;;;;2071827;28;20313;-58
2021/06/16 02:34:34;;;;;;;1.40;1.30;;;;;24.90;100614.00;;;;2072097;28;20225;-58
2021/06/16 02:35:34;;;;;;;1.60;1.00;;;;;25.00;100610.00;;;;2072056;28;20605;-58
2021/06/16 02:36:45;;;;;;;1.40;1.30;;;;;24.90;100615.00;;;;2070716;28;20305;-58
2021/06/16 02:37:48;;;;;;;1.20;1.10;;;;;25.00;100604.00;;;;2070953;28;20261;-58
2021/06/16 02:38:52;;;;;;;1.20;1.00;;;;;24.90;100603.00;;;;2070539;28;20211;-59
2021/06/16 02:39:55;;;;;;;2.13;1.30;;;;;25.00;100608.00;;;;2070360;28;20283;-58
2021/06/16 02:40:55;;;;;;;1.65;1.30;;;;;24.90;100601.00;;;;2063077;28;20214;-58
2021/06/16 02:41:55;;;;;;;1.37;1.13;;;;;25.00;100611.00;;;;2070444;28;20214;-58
2021/06/16 02:42:56;;;;;;;1.77;0.90;;;;;25.00;100605.00;;;;2062660;28;20223;-58
2021/06/16 02:43:56;;;;;;;1.37;1.10;;;;;25.00;100597.00;;;;2062642;28;20235;-57
2021/06/16 02:44:56;;;;;;;1.40;1.10;;;;;24.90;100605.00;;;;2078544;28;20220;-59
2021/06/16 02:45:57;;;;;;;3.60;1.53;;;;;24.90;100602.00;;;;2079173;28;20214;-58
2021/06/16 02:46:57;;;;;;;1.97;1.47;;;;;24.90;100606.00;;;;2073930;28;20214;-58
2021/06/16 02:47:57;;;;;;;1.27;1.07;;;;;24.90;100599.00;;;;2070803;28;20252;-58
2021/06/16 02:48:58;;;;;;;2.20;1.20;;;;;24.90;100604.00;;;;2078604;28;20296;-58
2021/06/16 02:49:59;;;;;;;1.50;1.20;;;;;24.90;100606.00;;;;2087692;28;20216;-58
2021/06/16 02:50:59;;;;;;;1.48;1.10;;;;;24.90;100608.00;;;;2079035;28;20213;-59
2021/06/16 02:52:00;;;;;;;1.40;1.20;;;;;24.90;100600.00;;;;2063121;28;20238;-58
2021/06/16 02:53:09;;;;;;;2.20;1.30;;;;;24.90;100598.00;;;;2071199;28;20214;-58
2021/06/16 02:54:16;;;;;;;1.20;1.10;;;;;24.90;100599.00;;;;2071491;28;20305;-58
2021/06/16 02:55:17;;;;;;;1.50;1.40;;;;;24.90;100598.00;;;;2071046;28;20221;-58
2021/06/16 02:56:17;;;;;;;1.83;1.20;;;;;24.90;100589.00;;;;2070980;28;20587;-58
2021/06/16 02:57:19;;;;;;;2.40;1.30;;;;;24.90;100597.00;;;;2071327;28;20214;-57
2021/06/16 02:58:19;;;;;;;1.52;1.30;;;;;24.90;100601.00;;;;2071166;28;20699;-58
2021/06/16 02:59:19;;;;;;;1.70;1.23;;;;;24.90;100587.00;;;;2086104;28;20216;-59
2021/06/16 03:00:20;;;;;;;1.40;1.20;;;;;24.90;100592.00;;;;2065932;28;20245;-58
2021/06/16 03:01:20;;;;;;;1.60;1.40;;;;;25.00;100592.00;;;;2064646;28;20297;-58
2021/06/16 03:02:22;;;;;;;1.57;1.37;;;;;24.90;100587.00;;;;2070987;28;20302;-59
2021/06/16 03:03:23;;;;;;;1.10;1.00;;;;;24.90;100592.00;;;;2077014;28;20205;-58
2021/06/16 03:04:24;;;;;;;1.30;1.03;;;;;24.90;100594.00;;;;2078955;28;20773;-59
2021/06/16 03:05:25;;;;;;;1.57;1.20;;;;;24.90;100593.00;;;;2087337;28;20513;-58
2021/06/16 03:06:25;;;;;;;1.40;1.10;;;;;24.90;100589.00;;;;2078997;28;20222;-58
2021/06/16 03:07:25;;;;;;;1.40;1.20;;;;;24.90;100592.00;;;;2062932;28;20305;-59
2021/06/16 03:08:26;;;;;;;1.30;1.20;;;;;24.90;100583.00;;;;2071012;28;20293;-58
2021/06/16 03:09:27;;;;;;;1.20;1.10;;;;;24.90;100594.00;;;;2079016;28;20785;-58
2021/06/16 03:10:28;;;;;;;1.50;1.20;;;;;24.90;100593.00;;;;2095596;28;20474;-59
2021/06/16 03:11:29;;;;;;;1.10;0.93;;;;;24.90;100592.00;;;;2086429;28;20344;-58
2021/06/16 03:12:29;;;;;;;2.47;1.53;;;;;24.90;100593.00;;;;2079276;28;20244;-59
2021/06/16 03:13:30;;;;;;;1.60;1.20;;;;;24.90;100586.00;;;;2078673;28;20218;-59
2021/06/16 03:14:30;;;;;;;1.30;1.20;;;;;24.90;100590.00;;;;2087447;28;20216;-58
2021/06/16 03:15:30;;;;;;;1.70;1.20;;;;;24.90;100590.00;;;;2086985;28;20242;-58
2021/06/16 03:16:32;;;;;;;1.67;1.30;;;;;24.90;100586.00;;;;2079298;28;20217;-58
2021/06/16 03:17:32;;;;;;;1.27;1.10;;;;;24.90;100588.00;;;;2079000;28;20236;-59
2021/06/16 03:18:32;;;;;;;1.80;1.37;;;;;24.90;100587.00;;;;2079185;28;20710;-59
2021/06/16 03:19:33;;;;;;;1.30;1.20;;;;;24.90;100590.00;;;;2078875;28;20213;-58
2021/06/16 03:20:33;;;;;;;1.47;1.10;;;;;24.90;100583.00;;;;2087198;28;20240;-59
2021/06/16 03:21:34;;;;;;;1.20;1.10;;;;;24.90;100593.00;;;;2078668;28;20717;-58
2021/06/16 03:22:34;;;;;;;1.23;1.13;;;;;24.90;100577.00;;;;2078881;28;20222;-58
2021/06/16 03:23:35;;;;;;;1.47;1.17;;;;;24.90;100591.00;;;;2079166;28;20224;-58
2021/06/16 03:24:35;;;;;;;1.27;1.17;;;;;24.90;100595.00;;;;2070552;28;20210;-58
2021/06/16 03:25:35;;;;;;;1.23;0.87;;;;;24.90;100592.00;;;;2078721;28;20217;-58
2021/06/16 03:26:36;;;;;;;1.87;1.20;;;;;24.90;100591.00;;;;2079207;28;20218;-58
2021/06/16 03:27:36;;;;;;;2.00;1.30;;;;;24.90;100595.00;;;;2070941;28;20301;-58
2021/06/16 03:28:37;;;;;;;1.27;1.03;;;;;24.90;100590.00;;;;2067739;28;20219;-58
2021/06/16 03:29:37;;;;;;;1.53;1.43;;;;;24.90;100581.00;;;;2079355;28;20217;-58
2021/06/16 03:30:37;;;;;;;1.47;1.20;;;;;24.90;100589.00;;;;2080139;28;20209;-58
2021/06/16 03:31:40;;;;;;;1.80;1.40;;;;;24.90;100596.00;;;;2062985;28;20211;-59
2021/06/16 03:32:41;;;;;;;1.63;1.52;;;;;24.90;100588.00;;;;2063760;28;20207;-61
2021/06/16 03:33:42;;;;;;;2.63;1.30;;;;;24.90;100586.00;;;;2078869;28;20319;-58
2021/06/16 03:34:42;;;;;;;1.50;1.40;;;;;24.90;100590.00;;;;2062744;28;20211;-59
2021/06/16 03:35:42;;;;;;;1.40;1.27;;;;;24.90;100582.00;;;;2070842;28;20770;-59
2021/06/16 03:36:43;;;;;;;2.70;1.40;;;;;24.90;100577.00;;;;2070787;28;20687;-59
2021/06/16 03:37:43;;;;;;;2.23;1.70;;;;;24.90;100595.00;;;;2070557;28;21027;-59
2021/06/16 03:38:43;;;;;;;1.67;1.20;;;;;24.90;100592.00;;;;2070684;28;20801;-58
2021/06/16 03:39:44;;;;;;;1.70;0.90;;;;;24.90;100586.00;;;;2070484;28;20217;-58
2021/06/16 03:40:45;;;;;;;1.30;1.20;;;;;24.90;100589.00;;;;2061646;28;20221;-59
2021/06/16 03:41:45;;;;;;;2.17;1.30;;;;;24.90;100586.00;;;;2070497;28;20603;-58
2021/06/16 03:42:48;;;;;;;2.33;1.60;;;;;24.90;100589.00;;;;2078688;28;20214;-58
2021/06/16 03:43:49;;;;;;;2.55;1.30;;;;;24.90;100583.00;;;;2070525;28;20210;-58
2021/06/16 03:44:49;;;;;;;1.30;1.20;;;;;24.90;100581.00;;;;2062184;28;20269;-59
2021/06/16 03:45:49;;;;;;;1.23;1.13;;;;;24.90;100591.00;;;;2070304;28;20472;-59
2021/06/16 03:46:50;;;;;;;1.40;1.10;;;;;24.90;100577.00;;;;2070012;28;20214;-58
2021/06/16 03:47:50;;;;;;;1.57;1.30;;;;;24.90;100580.00;;;;2070252;28;20214;-58
2021/06/16 03:48:51;;;;;;;1.63;1.20;;;;;24.90;100583.00;;;;2062277;28;20199;-58
2021/06/16 03:49:51;;;;;;;1.80;1.37;;;;;24.90;100576.00;;;;2078773;28;20229;-58
2021/06/16 03:50:52;;;;;;;1.77;1.40;;;;;24.90;100571.00;;;;2078904;28;20440;-58
2021/06/16 03:51:52;;;;;;;1.43;1.33;;;;;24.90;100574.00;;;;2069880;28;20210;-58
2021/06/16 03:52:53;;;;;;;1.40;1.30;;;;;24.90;100580.00;;;;2069205;28;20212;-59
2021/06/16 03:53:53;;;;;;;1.50;1.40;;;;;24.90;100577.00;;;;2070761;28;20232;-58
2021/06/16 03:54:54;;;;;;;2.00;1.50;;;;;24.90;100576.00;;;;2070698;28;20209;-58
2021/06/16 03:55:54;;;;;;;2.57;1.50;;;;;24.90;100572.00;;;;2077739;28;20253;-58
2021/06/16 03:56:55;;;;;;;1.20;1.10;;;;;24.90;100574.00;;;;2078574;28;20585;-58
2021/06/16 03:57:56;;;;;;;1.77;1.40;;;;;24.90;100570.00;;;;2087027;28;20215;-58
2021/06/16 03:58:56;;;;;;;1.57;1.33;;;;;24.90;100574.00;;;;2083771;28;20951;-59
2021/06/16 03:59:56;;;;;;;1.50;1.13;;;;;24.90;100571.00;;;;2070264;28;20218;-57
2021/06/16 04:00:57;;;;;;;1.40;1.13;;;;;24.90;100581.00;;;;2073588;28;20206;-58
2021/06/16 04:01:57;;;;;;;2.00;1.30;;;;;24.90;100572.00;;;;2080447;28;20210;-58
2021/06/16 04:02:57;;;;;;;4.50;1.30;;;;;24.90;100568.00;;;;2078169;28;20309;-58
2021/06/16 04:03:58;;;;;;;1.57;1.47;;;;;24.90;100565.00;;;;2078447;28;20299;-58
2021/06/16 04:05:05;;;;;;;1.50;1.40;;;;;24.90;100572.00;;;;2070652;28;20210;-58
2021/06/16 04:06:05;;;;;;;1.25;1.10;;;;;24.90;100566.00;;;;2070842;28;20256;-58
2021/06/16 04:07:06;;;;;;;2.00;1.70;;;;;24.90;100560.00;;;;2070160;28;20225;-57
2021/06/16 04:08:06;;;;;;;1.40;1.10;;;;;24.90;100561.00;;;;2070119;28;20730;-58
2021/06/16 04:09:07;;;;;;;2.43;1.90;;;;;24.90;100563.00;;;;2069848;28;20647;-59
2021/06/16 04:10:08;;;;;;;1.53;1.40;;;;;24.90;100565.00;;;;2061610;28;20582;-58
2021/06/16 04:11:08;;;;;;;1.30;1.20;;;;;24.90;100558.00;;;;2060666;28;20215;-58
2021/06/16 04:12:09;;;;;;;1.47;1.17;;;;;24.90;100553.00;;;;2070617;28;20221;-58
2021/06/16 04:13:10;;;;;;;1.70;1.60;;;;;24.90;100562.00;;;;2070738;28;20622;-58
2021/06/16 04:14:10;;;;;;;1.80;1.70;;;;;24.90;100550.00;;;;2070462;28;20268;-58
2021/06/16 04:15:11;;;;;;;1.70;1.40;;;;;24.90;100548.00;;;;2069861;28;20222;-58
2021/06/16 04:16:12;;;;;;;2.92;1.48;;;;;24.90;100559.00;;;;2069683;28;20269;-59
2021/06/16 04:17:12;;;;;;;1.60;1.37;;;;;24.90;100551.00;;;;2069866;28;20743;-59
2021/06/16 04:18:12;;;;;;;1.63;1.30;;;;;24.90;100554.00;;;;2069809;28;20267;-59
2021/06/16 04:19:13;;;;;;;1.33;1.20;;;;;24.90;100552.00;;;;2070747;28;20225;-57
2021/06/16 04:20:14;;;;;;;1.40;1.30;;;;;24.90;100555.00;;;;2070666;28;20218;-58
2021/06/16 04:21:14;;;;;;;1.50;1.40;;;;;24.90;100549.00;;;;2069931;28;20248;-58
2021/06/16 04:22:14;;;;;;;1.30;1.20;;;;;24.90;100549.00;;;;2071036;28;20738;-58
2021/06/16 04:23:15;;;;;;;1.23;1.13;;;;;24.90;100550.00;;;;2071187;28;20222;-59
2021/06/16 04:24:15;;;;;;;1.77;1.67;;;;;24.90;100551.00;;;;2078287;28;20209;-58
2021/06/16 04:25:16;;;;;;;1.47;1.37;;;;;24.90;100553.00;;;;2077541;28;20221;-58
2021/06/16 04:26:17;;;;;;;1.57;1.47;;;;;24.90;100554.00;;;;2070968;28;20222;-58
2021/06/16 04:27:17;;;;;;;2.30;1.60;;;;;24.90;100549.00;;;;2070967;28;20214;-58
2021/06/16 04:28:18;;;;;;;1.37;1.20;;;;;24.90;100550.00;;;;2077558;28;21044;-58
2021/06/16 04:29:18;;;;;;;1.73;1.30;;;;;24.90;100553.00;;;;2077623;28;20225;-59
2021/06/16 04:30:19;;;;;;;1.50;1.23;;;;;24.90;100548.00;;;;2073025;28;20690;-58
2021/06/16 04:31:19;;;;;;;1.13;1.03;;;;;24.90;100548.00;;;;2071692;28;20936;-59
2021/06/16 04:32:19;;;;;;;1.50;1.40;;;;;24.90;100548.00;;;;2070387;28;20491;-58
2021/06/16 04:33:20;;;;;;;1.63;1.27;;;;;24.90;100553.00;;;;2069745;28;20659;-61
2021/06/16 04:34:20;;;;;;;1.67;1.37;;;;;24.90;100549.00;;;;2070416;28;20241;-62
2021/06/16 04:35:20;;;;;;;1.50;1.40;;;;;24.90;100546.00;;;;2070793;28;20214;-59
2021/06/16 04:36:21;;;;;;;1.30;1.10;;;;;24.90;100542.00;;;;2070656;28;20210;-58
2021/06/16 04:37:21;;;;;;;1.57;1.40;;;;;24.90;100543.00;;;;2070971;28;20210;-59
2021/06/16 04:38:22;;;;;;;1.80;1.70;;;;;24.90;100552.00;;;;2070983;28;20241;-58
2021/06/16 04:39:22;;;;;;;1.57;1.27;;;;;24.90;100547.00;;;;2070859;28;20216;-59
2021/06/16 04:40:22;;;;;;;1.40;1.20;;;;;24.90;100544.00;;;;2070869;28;20214;-58
2021/06/16 04:41:23;;;;;;;1.40;1.30;;;;;24.90;100545.00;;;;2070308;28;20222;-59
2021/06/16 04:42:23;;;;;;;1.63;1.43;;;;;24.90;100541.00;;;;2070894;28;20706;-59
2021/06/16 04:43:23;;;;;;;1.43;1.27;;;;;24.90;100545.00;;;;2070977;28;20629;-58
2021/06/16 04:44:24;;;;;;;1.70;1.40;;;;;24.90;100542.00;;;;2071040;28;20980;-59
2021/06/16 04:45:24;;;;;;;1.73;1.40;;;;;24.90;100543.00;;;;2070846;28;20301;-59
2021/06/16 04:46:25;;;;;;;1.40;1.30;;;;;24.90;100541.00;;;;2070943;28;20597;-58
2021/06/16 04:47:25;;;;;;;1.40;1.30;;;;;24.90;100537.00;;;;2070764;28;20218;-59
2021/06/16 04:48:26;;;;;;;1.50;1.40;;;;;24.90;100542.00;;;;2070987;28;20225;-58
2021/06/16 04:49:27;;;;;;;2.20;1.50;;;;;24.90;100548.00;;;;2070457;28;20217;-58
2021/06/16 04:50:28;;;;;;;1.42;1.33;;;;;24.90;100541.00;;;;2070311;28;20634;-58
2021/06/16 04:51:28;;;;;;;1.30;1.20;;;;;24.90;100535.00;;;;2069799;28;20225;-59
2021/06/16 04:52:29;;;;;;;1.67;1.20;;;;;24.90;100533.00;;;;2070924;28;20209;-58
2021/06/16 04:53:29;;;;;;;1.37;1.27;;;;;24.90;100540.00;;;;2070937;28;20225;-58
2021/06/16 04:54:29;;;;;;;1.47;1.37;;;;;24.90;100543.00;;;;2070900;28;20218;-59
2021/06/16 04:55:30;;;;;;;1.70;1.60;;;;;24.90;100532.00;;;;2070559;28;20215;-59
2021/06/16 04:56:30;;;;;;;1.30;1.20;;;;;24.90;100535.00;;;;2062935;28;20214;-59
2021/06/16 04:57:30;;;;;;;1.40;1.20;;;;;24.90;100537.00;;;;2086802;28;20216;-58
2021/06/16 04:58:31;;;;;;;1.47;1.33;;;;;24.90;100533.00;;;;2087103;28;20236;-58
2021/06/16 04:59:32;;;;;;;1.87;1.40;;;;;24.90;100532.00;;;;2075724;28;20265;-59
2021/06/16 05:00:32;;;;;;;1.50;1.37;;;;;24.90;100536.00;;;;2070778;28;20210;-59
2021/06/16 05:01:34;;;;;;;1.40;1.30;;;;;24.90;100532.00;;;;2069902;28;21049;-59
2021/06/16 05:02:35;;;;;;;1.98;1.58;;;;;24.90;100526.00;;;;2070570;28;20306;-59
2021/06/16 05:03:35;;;;;;;1.60;1.50;;;;;24.90;100529.00;;;;2070237;28;20599;-59